sensor_id;sensor_type;location;lat;lon;timestamp;P1;durP1;ratioP1;P2;durP2;ratioP2
20653;SDS011;21083;50.898;4.902;2023-05-27T00:02:16;21.85;;;4.60;;
20653;SDS011;21083;50.898;4.902;2023-05-27T00:04:43;17.40;;;4.13;;
20653;SDS011;21083;50.898;4.902;2023-05-27T00:07:10;23.30;;;5.03;;
20653;SDS011;21083;50.898;4.902;2023-05-27T00:09:37;23.10;;;4.35;;
20653;SDS011;21083;50.898;4.902;2023-05-27T00:12:04;22.55;;;3.88;;
20653;SDS011;21083;50.898;4.902;2023-05-27T00:14:32;23.27;;;5.72;;
20653;SDS011;21083;50.898;4.902;2023-05-27T00:16:59;19.75;;;4.07;;
20653;SDS011;21083;50.898;4.902;2023-05-27T00:19:29;19.45;;;4.47;;
20653;SDS011;21083;50.898;4.902;2023-05-27T00:21:56;17.88;;;4.47;;
20653;SDS011;21083;50.898;4.902;2023-05-27T00:24:23;20.27;;;4.53;;
20653;SDS011;21083;50.898;4.902;2023-05-27T00:26:50;22.75;;;5.32;;
20653;SDS011;21083;50.898;4.902;2023-05-27T00:29:17;21.58;;;4.07;;
20653;SDS011;21083;50.898;4.902;2023-05-27T00:31:45;21.60;;;4.03;;
20653;SDS011;21083;50.898;4.902;2023-05-27T00:34:12;20.77;;;4.80;;
20653;SDS011;21083;50.898;4.902;2023-05-27T00:36:39;21.63;;;4.72;;
20653;SDS011;21083;50.898;4.902;2023-05-27T00:39:05;22.27;;;4.28;;
20653;SDS011;21083;50.898;4.902;2023-05-27T00:41:32;27.88;;;5.05;;
20653;SDS011;21083;50.898;4.902;2023-05-27T00:44:00;21.85;;;5.30;;
20653;SDS011;21083;50.898;4.902;2023-05-27T00:46:28;22.05;;;4.60;;
20653;SDS011;21083;50.898;4.902;2023-05-27T00:48:56;21.95;;;4.57;;
20653;SDS011;21083;50.898;4.902;2023-05-27T00:51:23;23.08;;;4.95;;
20653;SDS011;21083;50.898;4.902;2023-05-27T00:53:50;23.27;;;5.47;;
20653;SDS011;21083;50.898;4.902;2023-05-27T00:56:17;20.63;;;4.43;;
20653;SDS011;21083;50.898;4.902;2023-05-27T00:58:45;19.30;;;4.15;;
20653;SDS011;21083;50.898;4.902;2023-05-27T01:01:12;21.92;;;4.05;;
20653;SDS011;21083;50.898;4.902;2023-05-27T01:03:39;21.55;;;4.85;;
20653;SDS011;21083;50.898;4.902;2023-05-27T01:06:10;21.27;;;5.40;;
20653;SDS011;21083;50.898;4.902;2023-05-27T01:08:46;22.15;;;4.70;;
20653;SDS011;21083;50.898;4.902;2023-05-27T01:11:23;20.95;;;4.57;;
20653;SDS011;21083;50.898;4.902;2023-05-27T01:13:55;33.30;;;4.78;;
20653;SDS011;21083;50.898;4.902;2023-05-27T01:16:26;22.70;;;4.97;;
20653;SDS011;21083;50.898;4.902;2023-05-27T01:18:55;20.63;;;4.95;;
20653;SDS011;21083;50.898;4.902;2023-05-27T01:21:30;23.17;;;4.88;;
20653;SDS011;21083;50.898;4.902;2023-05-27T01:24:03;27.70;;;5.50;;
20653;SDS011;21083;50.898;4.902;2023-05-27T01:26:30;18.58;;;4.15;;
20653;SDS011;21083;50.898;4.902;2023-05-27T01:28:57;18.48;;;3.75;;
20653;SDS011;21083;50.898;4.902;2023-05-27T01:31:25;26.20;;;4.68;;
20653;SDS011;21083;50.898;4.902;2023-05-27T01:33:58;16.90;;;4.55;;
20653;SDS011;21083;50.898;4.902;2023-05-27T01:36:28;21.83;;;4.47;;
20653;SDS011;21083;50.898;4.902;2023-05-27T01:38:59;20.38;;;4.53;;
20653;SDS011;21083;50.898;4.902;2023-05-27T01:41:29;18.42;;;4.75;;
20653;SDS011;21083;50.898;4.902;2023-05-27T01:43:57;23.17;;;5.80;;
20653;SDS011;21083;50.898;4.902;2023-05-27T01:46:24;23.98;;;5.18;;
20653;SDS011;21083;50.898;4.902;2023-05-27T01:48:51;22.50;;;4.72;;
20653;SDS011;21083;50.898;4.902;2023-05-27T01:51:18;22.33;;;4.70;;
20653;SDS011;21083;50.898;4.902;2023-05-27T01:53:45;19.73;;;4.95;;
20653;SDS011;21083;50.898;4.902;2023-05-27T01:56:12;20.60;;;4.88;;
20653;SDS011;21083;50.898;4.902;2023-05-27T01:58:40;19.25;;;4.35;;
20653;SDS011;21083;50.898;4.902;2023-05-27T02:01:07;17.25;;;5.25;;
20653;SDS011;21083;50.898;4.902;2023-05-27T02:03:34;19.95;;;4.63;;
20653;SDS011;21083;50.898;4.902;2023-05-27T02:06:01;27.95;;;5.38;;
20653;SDS011;21083;50.898;4.902;2023-05-27T02:08:28;21.10;;;5.00;;
20653;SDS011;21083;50.898;4.902;2023-05-27T02:10:55;23.20;;;5.13;;
20653;SDS011;21083;50.898;4.902;2023-05-27T02:13:22;20.33;;;4.32;;
20653;SDS011;21083;50.898;4.902;2023-05-27T02:15:50;20.67;;;4.97;;
20653;SDS011;21083;50.898;4.902;2023-05-27T02:18:17;17.92;;;4.57;;
20653;SDS011;21083;50.898;4.902;2023-05-27T02:20:46;23.10;;;4.78;;
20653;SDS011;21083;50.898;4.902;2023-05-27T02:23:13;25.85;;;5.78;;
20653;SDS011;21083;50.898;4.902;2023-05-27T02:25:40;21.63;;;4.97;;
20653;SDS011;21083;50.898;4.902;2023-05-27T02:28:07;19.90;;;4.65;;
20653;SDS011;21083;50.898;4.902;2023-05-27T02:30:34;24.02;;;5.00;;
20653;SDS011;21083;50.898;4.902;2023-05-27T02:33:02;22.02;;;5.20;;
20653;SDS011;21083;50.898;4.902;2023-05-27T02:35:29;19.52;;;4.88;;
20653;SDS011;21083;50.898;4.902;2023-05-27T02:37:56;20.00;;;5.00;;
20653;SDS011;21083;50.898;4.902;2023-05-27T02:40:23;21.88;;;5.22;;
20653;SDS011;21083;50.898;4.902;2023-05-27T02:42:50;20.65;;;4.65;;
20653;SDS011;21083;50.898;4.902;2023-05-27T02:45:17;17.35;;;4.90;;
20653;SDS011;21083;50.898;4.902;2023-05-27T02:47:44;21.50;;;5.38;;
20653;SDS011;21083;50.898;4.902;2023-05-27T02:50:13;23.13;;;4.97;;
20653;SDS011;21083;50.898;4.902;2023-05-27T02:52:40;29.85;;;5.85;;
20653;SDS011;21083;50.898;4.902;2023-05-27T02:55:07;26.38;;;5.38;;
20653;SDS011;21083;50.898;4.902;2023-05-27T02:57:34;20.85;;;4.95;;
20653;SDS011;21083;50.898;4.902;2023-05-27T03:00:01;19.17;;;5.20;;
20653;SDS011;21083;50.898;4.902;2023-05-27T03:02:29;21.70;;;5.03;;
20653;SDS011;21083;50.898;4.902;2023-05-27T03:04:56;22.58;;;5.72;;
20653;SDS011;21083;50.898;4.902;2023-05-27T03:07:27;27.27;;;5.75;;
20653;SDS011;21083;50.898;4.902;2023-05-27T03:09:55;21.23;;;5.82;;
20653;SDS011;21083;50.898;4.902;2023-05-27T03:12:22;28.83;;;6.25;;
20653;SDS011;21083;50.898;4.902;2023-05-27T03:14:49;22.25;;;5.53;;
20653;SDS011;21083;50.898;4.902;2023-05-27T03:17:18;18.75;;;5.60;;
20653;SDS011;21083;50.898;4.902;2023-05-27T03:19:45;20.35;;;5.20;;
20653;SDS011;21083;50.898;4.902;2023-05-27T03:22:13;20.13;;;5.25;;
20653;SDS011;21083;50.898;4.902;2023-05-27T03:24:41;19.92;;;5.30;;
20653;SDS011;21083;50.898;4.902;2023-05-27T03:27:09;24.13;;;6.35;;
20653;SDS011;21083;50.898;4.902;2023-05-27T03:29:36;25.10;;;6.72;;
20653;SDS011;21083;50.898;4.902;2023-05-27T03:32:04;28.02;;;5.50;;
20653;SDS011;21083;50.898;4.902;2023-05-27T03:34:31;22.30;;;5.72;;
20653;SDS011;21083;50.898;4.902;2023-05-27T03:36:58;23.33;;;5.60;;
20653;SDS011;21083;50.898;4.902;2023-05-27T03:39:25;29.40;;;6.85;;
20653;SDS011;21083;50.898;4.902;2023-05-27T03:41:53;23.85;;;5.53;;
20653;SDS011;21083;50.898;4.902;2023-05-27T03:44:20;19.63;;;5.13;;
20653;SDS011;21083;50.898;4.902;2023-05-27T03:46:48;21.55;;;4.90;;
20653;SDS011;21083;50.898;4.902;2023-05-27T03:49:15;24.00;;;5.50;;
20653;SDS011;21083;50.898;4.902;2023-05-27T03:51:42;28.13;;;5.82;;
20653;SDS011;21083;50.898;4.902;2023-05-27T03:54:09;22.35;;;5.40;;
20653;SDS011;21083;50.898;4.902;2023-05-27T03:56:36;17.80;;;6.03;;
20653;SDS011;21083;50.898;4.902;2023-05-27T03:59:04;18.52;;;5.30;;
20653;SDS011;21083;50.898;4.902;2023-05-27T04:01:31;28.17;;;6.03;;
20653;SDS011;21083;50.898;4.902;2023-05-27T04:03:58;21.17;;;5.45;;
20653;SDS011;21083;50.898;4.902;2023-05-27T04:06:25;25.45;;;6.78;;
20653;SDS011;21083;50.898;4.902;2023-05-27T04:08:52;25.95;;;5.43;;
20653;SDS011;21083;50.898;4.902;2023-05-27T04:11:19;27.13;;;6.40;;
20653;SDS011;21083;50.898;4.902;2023-05-27T04:13:46;28.10;;;6.32;;
20653;SDS011;21083;50.898;4.902;2023-05-27T04:16:15;22.50;;;5.55;;
20653;SDS011;21083;50.898;4.902;2023-05-27T04:18:42;29.25;;;6.45;;
20653;SDS011;21083;50.898;4.902;2023-05-27T04:21:14;21.23;;;6.07;;
20653;SDS011;21083;50.898;4.902;2023-05-27T04:23:41;21.63;;;5.68;;
20653;SDS011;21083;50.898;4.902;2023-05-27T04:26:08;19.65;;;6.03;;
20653;SDS011;21083;50.898;4.902;2023-05-27T04:28:35;28.50;;;7.95;;
20653;SDS011;21083;50.898;4.902;2023-05-27T04:31:04;29.92;;;6.40;;
20653;SDS011;21083;50.898;4.902;2023-05-27T04:33:32;30.60;;;6.40;;
20653;SDS011;21083;50.898;4.902;2023-05-27T04:35:59;29.38;;;6.50;;
20653;SDS011;21083;50.898;4.902;2023-05-27T04:38:27;28.25;;;7.00;;
20653;SDS011;21083;50.898;4.902;2023-05-27T04:40:56;26.83;;;7.32;;
20653;SDS011;21083;50.898;4.902;2023-05-27T04:43:23;22.73;;;6.70;;
20653;SDS011;21083;50.898;4.902;2023-05-27T04:45:52;27.30;;;7.40;;
20653;SDS011;21083;50.898;4.902;2023-05-27T04:48:19;25.42;;;5.97;;
20653;SDS011;21083;50.898;4.902;2023-05-27T04:50:49;23.58;;;7.30;;
20653;SDS011;21083;50.898;4.902;2023-05-27T04:53:18;24.58;;;6.65;;
20653;SDS011;21083;50.898;4.902;2023-05-27T04:55:45;26.10;;;7.07;;
20653;SDS011;21083;50.898;4.902;2023-05-27T04:58:12;31.58;;;9.35;;
20653;SDS011;21083;50.898;4.902;2023-05-27T05:00:39;24.50;;;7.15;;
20653;SDS011;21083;50.898;4.902;2023-05-27T05:03:15;26.00;;;7.25;;
20653;SDS011;21083;50.898;4.902;2023-05-27T05:05:47;29.10;;;6.63;;
20653;SDS011;21083;50.898;4.902;2023-05-27T05:08:17;28.02;;;7.47;;
20653;SDS011;21083;50.898;4.902;2023-05-27T05:10:46;26.02;;;6.78;;
20653;SDS011;21083;50.898;4.902;2023-05-27T05:13:13;21.92;;;6.93;;
20653;SDS011;21083;50.898;4.902;2023-05-27T05:15:41;31.35;;;8.15;;
20653;SDS011;21083;50.898;4.902;2023-05-27T05:18:09;20.13;;;6.78;;
20653;SDS011;21083;50.898;4.902;2023-05-27T05:20:36;31.58;;;7.55;;
20653;SDS011;21083;50.898;4.902;2023-05-27T05:23:04;31.45;;;7.38;;
20653;SDS011;21083;50.898;4.902;2023-05-27T05:25:32;25.13;;;7.93;;
20653;SDS011;21083;50.898;4.902;2023-05-27T05:28:03;25.85;;;7.72;;
20653;SDS011;21083;50.898;4.902;2023-05-27T05:30:30;34.63;;;7.65;;
20653;SDS011;21083;50.898;4.902;2023-05-27T05:32:57;25.33;;;7.20;;
20653;SDS011;21083;50.898;4.902;2023-05-27T05:35:24;24.17;;;7.60;;
20653;SDS011;21083;50.898;4.902;2023-05-27T05:37:51;26.65;;;9.18;;
20653;SDS011;21083;50.898;4.902;2023-05-27T05:40:21;29.70;;;7.32;;
20653;SDS011;21083;50.898;4.902;2023-05-27T05:42:48;28.23;;;7.90;;
20653;SDS011;21083;50.898;4.902;2023-05-27T05:45:15;30.08;;;7.88;;
20653;SDS011;21083;50.898;4.902;2023-05-27T05:47:42;25.35;;;7.43;;
20653;SDS011;21083;50.898;4.902;2023-05-27T05:50:09;22.10;;;7.63;;
20653;SDS011;21083;50.898;4.902;2023-05-27T05:52:36;26.60;;;8.30;;
20653;SDS011;21083;50.898;4.902;2023-05-27T05:55:03;25.70;;;9.25;;
20653;SDS011;21083;50.898;4.902;2023-05-27T05:57:33;27.27;;;7.82;;
20653;SDS011;21083;50.898;4.902;2023-05-27T06:00:00;27.83;;;7.82;;
20653;SDS011;21083;50.898;4.902;2023-05-27T06:02:27;29.05;;;7.40;;
20653;SDS011;21083;50.898;4.902;2023-05-27T06:04:54;27.30;;;7.68;;
20653;SDS011;21083;50.898;4.902;2023-05-27T06:07:21;24.42;;;7.80;;
20653;SDS011;21083;50.898;4.902;2023-05-27T06:09:48;32.40;;;8.88;;
20653;SDS011;21083;50.898;4.902;2023-05-27T06:12:15;27.20;;;7.10;;
20653;SDS011;21083;50.898;4.902;2023-05-27T06:14:43;29.00;;;7.53;;
20653;SDS011;21083;50.898;4.902;2023-05-27T06:17:12;27.75;;;7.43;;
20653;SDS011;21083;50.898;4.902;2023-05-27T06:19:39;33.22;;;8.85;;
20653;SDS011;21083;50.898;4.902;2023-05-27T06:22:06;24.70;;;8.52;;
20653;SDS011;21083;50.898;4.902;2023-05-27T06:24:33;24.98;;;7.55;;
20653;SDS011;21083;50.898;4.902;2023-05-27T06:27:00;28.48;;;8.20;;
20653;SDS011;21083;50.898;4.902;2023-05-27T06:29:27;28.17;;;7.15;;
20653;SDS011;21083;50.898;4.902;2023-05-27T06:31:55;24.23;;;7.45;;
20653;SDS011;21083;50.898;4.902;2023-05-27T06:34:22;22.73;;;7.03;;
20653;SDS011;21083;50.898;4.902;2023-05-27T06:36:49;23.45;;;7.07;;
20653;SDS011;21083;50.898;4.902;2023-05-27T06:39:16;32.15;;;7.93;;
20653;SDS011;21083;50.898;4.902;2023-05-27T06:41:43;24.50;;;7.25;;
20653;SDS011;21083;50.898;4.902;2023-05-27T06:44:10;27.10;;;6.68;;
20653;SDS011;21083;50.898;4.902;2023-05-27T06:46:37;24.83;;;7.93;;
20653;SDS011;21083;50.898;4.902;2023-05-27T06:49:05;30.38;;;8.05;;
20653;SDS011;21083;50.898;4.902;2023-05-27T06:51:32;24.88;;;7.72;;
20653;SDS011;21083;50.898;4.902;2023-05-27T06:53:59;24.23;;;7.32;;
20653;SDS011;21083;50.898;4.902;2023-05-27T06:56:26;24.30;;;8.00;;
20653;SDS011;21083;50.898;4.902;2023-05-27T06:58:52;27.35;;;7.60;;
20653;SDS011;21083;50.898;4.902;2023-05-27T07:01:19;31.67;;;8.13;;
20653;SDS011;21083;50.898;4.902;2023-05-27T07:03:46;25.77;;;7.65;;
20653;SDS011;21083;50.898;4.902;2023-05-27T07:06:16;26.48;;;8.38;;
20653;SDS011;21083;50.898;4.902;2023-05-27T07:08:43;29.17;;;8.07;;
20653;SDS011;21083;50.898;4.902;2023-05-27T07:11:10;19.92;;;6.82;;
20653;SDS011;21083;50.898;4.902;2023-05-27T07:13:37;20.83;;;7.00;;
20653;SDS011;21083;50.898;4.902;2023-05-27T07:16:04;23.17;;;8.05;;
20653;SDS011;21083;50.898;4.902;2023-05-27T07:18:31;25.88;;;7.55;;
20653;SDS011;21083;50.898;4.902;2023-05-27T07:20:58;24.75;;;7.45;;
20653;SDS011;21083;50.898;4.902;2023-05-27T07:23:26;30.27;;;7.05;;
20653;SDS011;21083;50.898;4.902;2023-05-27T07:25:53;25.10;;;7.20;;
20653;SDS011;21083;50.898;4.902;2023-05-27T07:28:20;36.60;;;7.75;;
20653;SDS011;21083;50.898;4.902;2023-05-27T07:30:47;28.73;;;8.73;;
20653;SDS011;21083;50.898;4.902;2023-05-27T07:33:14;25.58;;;6.88;;
20653;SDS011;21083;50.898;4.902;2023-05-27T07:35:41;31.92;;;7.90;;
20653;SDS011;21083;50.898;4.902;2023-05-27T07:38:07;31.75;;;9.00;;
20653;SDS011;21083;50.898;4.902;2023-05-27T07:40:36;28.02;;;7.70;;
20653;SDS011;21083;50.898;4.902;2023-05-27T07:43:03;28.80;;;7.80;;
20653;SDS011;21083;50.898;4.902;2023-05-27T07:45:30;22.40;;;6.80;;
20653;SDS011;21083;50.898;4.902;2023-05-27T07:47:57;24.73;;;7.03;;
20653;SDS011;21083;50.898;4.902;2023-05-27T07:50:24;26.75;;;7.97;;
20653;SDS011;21083;50.898;4.902;2023-05-27T07:52:51;21.40;;;7.22;;
20653;SDS011;21083;50.898;4.902;2023-05-27T07:55:18;23.50;;;7.68;;
20653;SDS011;21083;50.898;4.902;2023-05-27T07:57:46;25.73;;;6.50;;
20653;SDS011;21083;50.898;4.902;2023-05-27T08:00:13;23.55;;;6.28;;
20653;SDS011;21083;50.898;4.902;2023-05-27T08:02:40;30.55;;;7.00;;
20653;SDS011;21083;50.898;4.902;2023-05-27T08:05:08;18.85;;;6.28;;
20653;SDS011;21083;50.898;4.902;2023-05-27T08:07:35;28.02;;;6.20;;
20653;SDS011;21083;50.898;4.902;2023-05-27T08:10:05;22.30;;;6.45;;
20653;SDS011;21083;50.898;4.902;2023-05-27T08:12:34;24.08;;;6.53;;
20653;SDS011;21083;50.898;4.902;2023-05-27T08:15:02;24.60;;;6.25;;
20653;SDS011;21083;50.898;4.902;2023-05-27T08:17:29;23.13;;;6.75;;
20653;SDS011;21083;50.898;4.902;2023-05-27T08:19:56;24.02;;;6.15;;
20653;SDS011;21083;50.898;4.902;2023-05-27T08:22:23;20.70;;;6.30;;
20653;SDS011;21083;50.898;4.902;2023-05-27T08:24:50;27.33;;;6.68;;
20653;SDS011;21083;50.898;4.902;2023-05-27T08:27:17;24.88;;;7.30;;
20653;SDS011;21083;50.898;4.902;2023-05-27T08:29:44;26.77;;;6.82;;
20653;SDS011;21083;50.898;4.902;2023-05-27T08:32:13;26.52;;;7.18;;
20653;SDS011;21083;50.898;4.902;2023-05-27T08:34:40;21.45;;;6.63;;
20653;SDS011;21083;50.898;4.902;2023-05-27T08:37:09;20.27;;;6.57;;
20653;SDS011;21083;50.898;4.902;2023-05-27T08:39:36;24.38;;;6.45;;
20653;SDS011;21083;50.898;4.902;2023-05-27T08:42:03;25.63;;;7.05;;
20653;SDS011;21083;50.898;4.902;2023-05-27T08:44:30;23.63;;;6.63;;
20653;SDS011;21083;50.898;4.902;2023-05-27T08:46:57;23.98;;;6.03;;
20653;SDS011;21083;50.898;4.902;2023-05-27T08:49:27;22.63;;;5.78;;
20653;SDS011;21083;50.898;4.902;2023-05-27T08:51:54;26.92;;;6.47;;
20653;SDS011;21083;50.898;4.902;2023-05-27T08:54:23;29.13;;;7.28;;
20653;SDS011;21083;50.898;4.902;2023-05-27T08:56:51;28.50;;;6.38;;
20653;SDS011;21083;50.898;4.902;2023-05-27T08:59:21;24.98;;;6.47;;
20653;SDS011;21083;50.898;4.902;2023-05-27T09:01:48;19.75;;;6.28;;
20653;SDS011;21083;50.898;4.902;2023-05-27T09:04:16;27.27;;;8.10;;
20653;SDS011;21083;50.898;4.902;2023-05-27T09:06:44;23.08;;;6.22;;
20653;SDS011;21083;50.898;4.902;2023-05-27T09:09:11;26.75;;;5.53;;
20653;SDS011;21083;50.898;4.902;2023-05-27T09:11:38;22.65;;;5.72;;
20653;SDS011;21083;50.898;4.902;2023-05-27T09:14:07;25.02;;;6.45;;
20653;SDS011;21083;50.898;4.902;2023-05-27T09:16:41;25.77;;;6.05;;
20653;SDS011;21083;50.898;4.902;2023-05-27T09:19:14;30.67;;;8.18;;
20653;SDS011;21083;50.898;4.902;2023-05-27T09:21:42;22.45;;;5.90;;
20653;SDS011;21083;50.898;4.902;2023-05-27T09:24:10;21.10;;;6.20;;
20653;SDS011;21083;50.898;4.902;2023-05-27T09:26:38;25.48;;;6.00;;
20653;SDS011;21083;50.898;4.902;2023-05-27T09:29:05;23.35;;;6.85;;
20653;SDS011;21083;50.898;4.902;2023-05-27T09:31:32;27.00;;;7.00;;
20653;SDS011;21083;50.898;4.902;2023-05-27T09:34:15;22.88;;;6.25;;
20653;SDS011;21083;50.898;4.902;2023-05-27T09:36:42;15.93;;;5.38;;
20653;SDS011;21083;50.898;4.902;2023-05-27T09:39:11;26.52;;;6.80;;
20653;SDS011;21083;50.898;4.902;2023-05-27T09:41:39;19.52;;;6.40;;
20653;SDS011;21083;50.898;4.902;2023-05-27T09:44:06;23.08;;;5.95;;
20653;SDS011;21083;50.898;4.902;2023-05-27T09:46:33;20.25;;;5.47;;
20653;SDS011;21083;50.898;4.902;2023-05-27T09:49:01;21.73;;;6.15;;
20653;SDS011;21083;50.898;4.902;2023-05-27T09:51:29;25.05;;;6.93;;
20653;SDS011;21083;50.898;4.902;2023-05-27T09:53:57;22.10;;;6.30;;
20653;SDS011;21083;50.898;4.902;2023-05-27T09:56:26;30.42;;;7.10;;
20653;SDS011;21083;50.898;4.902;2023-05-27T09:58:54;21.60;;;5.53;;
20653;SDS011;21083;50.898;4.902;2023-05-27T10:01:21;23.58;;;6.43;;
20653;SDS011;21083;50.898;4.902;2023-05-27T10:03:51;22.90;;;6.15;;
20653;SDS011;21083;50.898;4.902;2023-05-27T10:06:18;22.98;;;6.22;;
20653;SDS011;21083;50.898;4.902;2023-05-27T10:08:46;26.92;;;6.40;;
20653;SDS011;21083;50.898;4.902;2023-05-27T10:11:13;24.75;;;5.70;;
20653;SDS011;21083;50.898;4.902;2023-05-27T10:13:42;19.17;;;5.90;;
20653;SDS011;21083;50.898;4.902;2023-05-27T10:16:17;21.33;;;5.55;;
20653;SDS011;21083;50.898;4.902;2023-05-27T10:18:46;20.90;;;5.88;;
20653;SDS011;21083;50.898;4.902;2023-05-27T10:21:18;21.33;;;5.53;;
20653;SDS011;21083;50.898;4.902;2023-05-27T10:23:52;25.45;;;5.75;;
20653;SDS011;21083;50.898;4.902;2023-05-27T10:26:30;25.48;;;5.32;;
20653;SDS011;21083;50.898;4.902;2023-05-27T10:29:05;22.77;;;6.30;;
20653;SDS011;21083;50.898;4.902;2023-05-27T10:31:33;19.35;;;5.78;;
20653;SDS011;21083;50.898;4.902;2023-05-27T10:34:03;23.67;;;5.47;;
20653;SDS011;21083;50.898;4.902;2023-05-27T10:36:31;24.00;;;5.30;;
20653;SDS011;21083;50.898;4.902;2023-05-27T10:38:59;22.65;;;5.60;;
20653;SDS011;21083;50.898;4.902;2023-05-27T10:41:37;20.95;;;5.93;;
20653;SDS011;21083;50.898;4.902;2023-05-27T10:44:07;19.38;;;6.13;;
20653;SDS011;21083;50.898;4.902;2023-05-27T10:46:38;32.83;;;6.15;;
20653;SDS011;21083;50.898;4.902;2023-05-27T10:49:10;26.55;;;5.38;;
20653;SDS011;21083;50.898;4.902;2023-05-27T10:51:40;22.45;;;4.53;;
20653;SDS011;21083;50.898;4.902;2023-05-27T10:54:08;20.10;;;4.45;;
20653;SDS011;21083;50.898;4.902;2023-05-27T10:56:35;20.20;;;4.30;;
20653;SDS011;21083;50.898;4.902;2023-05-27T10:59:02;16.45;;;4.45;;
20653;SDS011;21083;50.898;4.902;2023-05-27T11:01:37;18.95;;;5.32;;
20653;SDS011;21083;50.898;4.902;2023-05-27T11:04:05;20.10;;;5.32;;
20653;SDS011;21083;50.898;4.902;2023-05-27T11:06:33;24.80;;;5.18;;
20653;SDS011;21083;50.898;4.902;2023-05-27T11:09:00;21.05;;;4.57;;
20653;SDS011;21083;50.898;4.902;2023-05-27T11:11:27;18.48;;;4.68;;
20653;SDS011;21083;50.898;4.902;2023-05-27T11:13:54;25.13;;;5.72;;
20653;SDS011;21083;50.898;4.902;2023-05-27T11:16:21;18.98;;;5.15;;
20653;SDS011;21083;50.898;4.902;2023-05-27T11:18:49;24.63;;;5.53;;
20653;SDS011;21083;50.898;4.902;2023-05-27T11:21:16;18.40;;;4.53;;
20653;SDS011;21083;50.898;4.902;2023-05-27T11:23:44;18.95;;;4.50;;
20653;SDS011;21083;50.898;4.902;2023-05-27T11:26:16;20.27;;;5.13;;
20653;SDS011;21083;50.898;4.902;2023-05-27T11:28:46;16.70;;;5.35;;
20653;SDS011;21083;50.898;4.902;2023-05-27T11:31:14;19.42;;;5.35;;
20653;SDS011;21083;50.898;4.902;2023-05-27T11:33:42;15.30;;;4.65;;
20653;SDS011;21083;50.898;4.902;2023-05-27T11:36:12;22.33;;;5.00;;
20653;SDS011;21083;50.898;4.902;2023-05-27T11:38:49;17.60;;;5.03;;
20653;SDS011;21083;50.898;4.902;2023-05-27T11:41:18;17.45;;;4.80;;
20653;SDS011;21083;50.898;4.902;2023-05-27T11:43:49;19.00;;;5.18;;
20653;SDS011;21083;50.898;4.902;2023-05-27T11:46:16;15.23;;;4.60;;
20653;SDS011;21083;50.898;4.902;2023-05-27T11:48:44;20.85;;;5.95;;
20653;SDS011;21083;50.898;4.902;2023-05-27T11:51:12;17.08;;;4.68;;
20653;SDS011;21083;50.898;4.902;2023-05-27T11:53:39;13.68;;;4.07;;
20653;SDS011;21083;50.898;4.902;2023-05-27T11:56:07;14.23;;;4.57;;
20653;SDS011;21083;50.898;4.902;2023-05-27T11:58:34;19.08;;;4.68;;
20653;SDS011;21083;50.898;4.902;2023-05-27T12:01:02;17.58;;;4.20;;
20653;SDS011;21083;50.898;4.902;2023-05-27T12:03:30;21.58;;;4.90;;
20653;SDS011;21083;50.898;4.902;2023-05-27T12:05:57;16.67;;;4.55;;
20653;SDS011;21083;50.898;4.902;2023-05-27T12:08:25;16.92;;;4.30;;
20653;SDS011;21083;50.898;4.902;2023-05-27T12:10:52;17.58;;;4.82;;
20653;SDS011;21083;50.898;4.902;2023-05-27T12:13:19;19.10;;;4.93;;
20653;SDS011;21083;50.898;4.902;2023-05-27T12:15:47;16.70;;;4.38;;
20653;SDS011;21083;50.898;4.902;2023-05-27T12:18:14;18.85;;;4.65;;
20653;SDS011;21083;50.898;4.902;2023-05-27T12:20:41;20.00;;;4.82;;
20653;SDS011;21083;50.898;4.902;2023-05-27T12:23:08;18.35;;;4.60;;
20653;SDS011;21083;50.898;4.902;2023-05-27T12:25:36;15.98;;;4.38;;
20653;SDS011;21083;50.898;4.902;2023-05-27T12:28:03;17.40;;;4.60;;
20653;SDS011;21083;50.898;4.902;2023-05-27T12:30:32;15.02;;;4.15;;
20653;SDS011;21083;50.898;4.902;2023-05-27T12:33:00;22.50;;;5.20;;
20653;SDS011;21083;50.898;4.902;2023-05-27T12:35:27;15.25;;;4.43;;
20653;SDS011;21083;50.898;4.902;2023-05-27T12:37:54;14.50;;;4.13;;
20653;SDS011;21083;50.898;4.902;2023-05-27T12:40:21;14.85;;;4.20;;
20653;SDS011;21083;50.898;4.902;2023-05-27T12:42:49;21.38;;;4.32;;
20653;SDS011;21083;50.898;4.902;2023-05-27T12:45:16;16.35;;;3.97;;
20653;SDS011;21083;50.898;4.902;2023-05-27T12:47:43;13.25;;;3.40;;
20653;SDS011;21083;50.898;4.902;2023-05-27T12:50:10;20.35;;;5.07;;
20653;SDS011;21083;50.898;4.902;2023-05-27T12:52:37;16.52;;;4.35;;
20653;SDS011;21083;50.898;4.902;2023-05-27T12:55:06;15.35;;;4.43;;
20653;SDS011;21083;50.898;4.902;2023-05-27T12:57:34;15.27;;;4.13;;
20653;SDS011;21083;50.898;4.902;2023-05-27T13:00:03;13.45;;;3.60;;
20653;SDS011;21083;50.898;4.902;2023-05-27T13:02:30;22.70;;;6.43;;
20653;SDS011;21083;50.898;4.902;2023-05-27T13:04:57;18.00;;;5.57;;
20653;SDS011;21083;50.898;4.902;2023-05-27T13:07:26;26.45;;;9.77;;
20653;SDS011;21083;50.898;4.902;2023-05-27T13:09:53;37.70;;;15.80;;
20653;SDS011;21083;50.898;4.902;2023-05-27T13:12:20;25.42;;;6.85;;
20653;SDS011;21083;50.898;4.902;2023-05-27T13:14:47;15.13;;;4.75;;
20653;SDS011;21083;50.898;4.902;2023-05-27T13:17:16;32.78;;;13.43;;
20653;SDS011;21083;50.898;4.902;2023-05-27T13:19:43;17.55;;;5.65;;
20653;SDS011;21083;50.898;4.902;2023-05-27T13:22:10;13.73;;;4.18;;
20653;SDS011;21083;50.898;4.902;2023-05-27T13:24:37;16.90;;;4.80;;
20653;SDS011;21083;50.898;4.902;2023-05-27T13:27:04;16.48;;;4.10;;
20653;SDS011;21083;50.898;4.902;2023-05-27T13:29:32;22.88;;;7.55;;
20653;SDS011;21083;50.898;4.902;2023-05-27T13:31:58;22.80;;;7.05;;
20653;SDS011;21083;50.898;4.902;2023-05-27T13:34:27;17.33;;;4.22;;
20653;SDS011;21083;50.898;4.902;2023-05-27T13:36:55;21.15;;;4.50;;
20653;SDS011;21083;50.898;4.902;2023-05-27T13:39:22;17.17;;;4.20;;
20653;SDS011;21083;50.898;4.902;2023-05-27T13:41:49;15.90;;;3.83;;
20653;SDS011;21083;50.898;4.902;2023-05-27T13:44:16;21.80;;;6.93;;
20653;SDS011;21083;50.898;4.902;2023-05-27T13:46:43;19.85;;;5.00;;
20653;SDS011;21083;50.898;4.902;2023-05-27T13:49:10;17.23;;;4.53;;
20653;SDS011;21083;50.898;4.902;2023-05-27T13:51:43;19.15;;;4.22;;
20653;SDS011;21083;50.898;4.902;2023-05-27T13:54:10;15.30;;;5.22;;
20653;SDS011;21083;50.898;4.902;2023-05-27T13:56:38;20.55;;;7.38;;
20653;SDS011;21083;50.898;4.902;2023-05-27T13:59:05;23.10;;;7.85;;
20653;SDS011;21083;50.898;4.902;2023-05-27T14:01:34;16.15;;;4.63;;
20653;SDS011;21083;50.898;4.902;2023-05-27T14:04:02;13.25;;;3.88;;
20653;SDS011;21083;50.898;4.902;2023-05-27T14:06:28;15.13;;;4.30;;
20653;SDS011;21083;50.898;4.902;2023-05-27T14:08:57;17.20;;;4.15;;
20653;SDS011;21083;50.898;4.902;2023-05-27T14:11:24;21.27;;;7.22;;
20653;SDS011;21083;50.898;4.902;2023-05-27T14:13:51;16.95;;;5.00;;
20653;SDS011;21083;50.898;4.902;2023-05-27T14:16:20;15.60;;;4.15;;
20653;SDS011;21083;50.898;4.902;2023-05-27T14:18:47;16.90;;;4.22;;
20653;SDS011;21083;50.898;4.902;2023-05-27T14:21:14;18.90;;;4.28;;
20653;SDS011;21083;50.898;4.902;2023-05-27T14:23:42;12.88;;;4.00;;
20653;SDS011;21083;50.898;4.902;2023-05-27T14:26:11;14.13;;;4.10;;
20653;SDS011;21083;50.898;4.902;2023-05-27T14:28:38;18.08;;;4.43;;
20653;SDS011;21083;50.898;4.902;2023-05-27T14:31:05;16.88;;;6.05;;
20653;SDS011;21083;50.898;4.902;2023-05-27T14:33:32;21.75;;;4.50;;
20653;SDS011;21083;50.898;4.902;2023-05-27T14:35:59;19.88;;;5.57;;
20653;SDS011;21083;50.898;4.902;2023-05-27T14:38:26;14.32;;;5.00;;